createdAt,value
2023-01-23T00:00:57.223Z,2.20
2023-01-23T00:03:24.219Z,2.00
2023-01-23T00:06:04.977Z,2.00
2023-01-23T00:08:32.265Z,1.90
2023-01-23T00:10:58.933Z,1.80
2023-01-23T00:13:25.686Z,1.80
2023-01-23T00:15:52.362Z,1.80
2023-01-23T00:18:19.154Z,1.80
2023-01-23T00:20:45.898Z,1.80
2023-01-23T00:23:13.700Z,1.70
2023-01-23T00:25:40.305Z,1.80
2023-01-23T00:28:07.063Z,1.80
2023-01-23T00:30:33.947Z,1.70
2023-01-23T00:33:00.814Z,1.80
2023-01-23T00:35:27.544Z,1.80
2023-01-23T00:37:54.745Z,1.80
2023-01-23T00:40:22.027Z,1.60
2023-01-23T00:42:48.948Z,1.60
2023-01-23T00:45:16.589Z,1.50
2023-01-23T00:47:43.310Z,1.50
2023-01-23T00:50:10.967Z,1.40
2023-01-23T00:52:37.601Z,1.30
2023-01-23T00:55:05.326Z,1.10
2023-01-23T00:57:31.981Z,1.20
2023-01-23T00:59:58.877Z,1.40
2023-01-23T01:02:25.691Z,1.40
2023-01-23T01:04:53.142Z,1.40
2023-01-23T01:07:19.764Z,1.40
2023-01-23T01:09:47.410Z,1.30
2023-01-23T01:12:15.440Z,1.30
2023-01-23T01:14:42.142Z,1.30
2023-01-23T01:17:08.910Z,1.30
2023-01-23T01:19:36.142Z,1.30
2023-01-23T01:22:03.267Z,1.30
2023-01-23T01:24:30.189Z,1.30
2023-01-23T01:26:56.962Z,1.30
2023-01-23T01:29:24.163Z,1.30
2023-01-23T01:31:50.871Z,1.40
2023-01-23T01:34:18.992Z,1.20
2023-01-23T01:36:45.649Z,1.30
2023-01-23T01:39:12.421Z,1.20
2023-01-23T01:41:39.097Z,1.30
2023-01-23T01:44:05.817Z,1.40
2023-01-23T01:46:33.119Z,1.40
2023-01-23T01:49:08.024Z,1.30
2023-01-23T01:51:44.051Z,1.30
2023-01-23T01:54:19.990Z,1.40
2023-01-23T01:56:58.565Z,1.50
2023-01-23T01:59:29.748Z,1.40
2023-01-23T02:02:09.315Z,1.50
2023-01-23T02:04:38.918Z,1.40
2023-01-23T02:07:11.461Z,1.40
2023-01-23T02:09:38.451Z,1.40
2023-01-23T02:12:05.352Z,1.40
2023-01-23T02:14:32.048Z,1.50
2023-01-23T02:17:01.064Z,1.40
2023-01-23T02:19:45.316Z,1.40
2023-01-23T02:22:17.591Z,1.20
2023-01-23T02:25:01.855Z,1.40
2023-01-23T02:27:28.543Z,1.20
2023-01-23T02:29:56.231Z,1.30
2023-01-23T02:32:26.810Z,1.30
2023-01-23T02:34:56.866Z,1.40
2023-01-23T02:37:29.759Z,1.30
2023-01-23T02:39:57.204Z,1.40
2023-01-23T02:42:25.088Z,1.50
2023-01-23T02:44:55.753Z,1.00
2023-01-23T02:47:23.066Z,1.00
2023-01-23T02:49:49.757Z,1.10
2023-01-23T02:52:16.952Z,1.20
2023-01-23T02:54:43.631Z,1.30
2023-01-23T02:57:10.387Z,1.40
2023-01-23T02:59:56.937Z,1.40
2023-01-23T03:02:24.536Z,1.30
2023-01-23T03:04:51.213Z,1.30
2023-01-23T03:07:19.848Z,1.20
2023-01-23T03:09:47.823Z,1.10
2023-01-23T03:12:15.445Z,1.10
2023-01-23T03:14:42.362Z,1.20
2023-01-23T03:17:10.961Z,1.20
2023-01-23T03:19:38.955Z,1.30
2023-01-23T03:22:05.801Z,1.20
2023-01-23T03:24:34.421Z,1.10
2023-01-23T03:27:01.307Z,1.30
2023-01-23T03:29:50.911Z,1.30
2023-01-23T03:32:17.874Z,1.30
2023-01-23T03:34:44.812Z,1.30
2023-01-23T03:37:13.021Z,1.40
2023-01-23T03:40:01.385Z,1.50
2023-01-23T03:42:28.176Z,1.50
2023-01-23T03:44:57.332Z,1.60
2023-01-23T03:47:27.341Z,1.50
2023-01-23T03:49:55.437Z,1.30
2023-01-23T03:52:22.425Z,1.20
2023-01-23T03:54:49.373Z,1.30
2023-01-23T03:57:16.072Z,1.40
2023-01-23T03:59:48.704Z,1.40
2023-01-23T04:02:18.392Z,1.30
2023-01-23T04:04:45.126Z,1.40
2023-01-23T04:07:11.962Z,1.40
2023-01-23T04:09:40.802Z,1.60
2023-01-23T04:12:08.522Z,1.60
2023-01-23T04:14:39.288Z,1.70
2023-01-23T04:17:08.064Z,1.60
2023-01-23T04:19:35.492Z,1.50
2023-01-23T04:22:02.422Z,1.60
2023-01-23T04:24:33.285Z,1.50
2023-01-23T04:27:00.011Z,1.30
2023-01-23T04:29:28.066Z,1.30
2023-01-23T04:31:54.740Z,1.40
2023-01-23T04:34:22.084Z,1.40
2023-01-23T04:36:50.550Z,1.40
2023-01-23T04:39:17.380Z,1.40
2023-01-23T04:41:46.711Z,1.30
2023-01-23T04:44:27.249Z,1.30
2023-01-23T04:47:12.636Z,1.20
2023-01-23T04:49:39.769Z,1.20
2023-01-23T04:52:06.723Z,1.20
2023-01-23T04:54:37.657Z,1.00
2023-01-23T04:57:04.703Z,1.00
2023-01-23T04:59:32.406Z,0.90
2023-01-23T05:01:59.186Z,1.00
2023-01-23T05:04:26.031Z,1.10
2023-01-23T05:06:52.741Z,1.20
2023-01-23T05:09:19.383Z,1.20
2023-01-23T05:11:51.369Z,1.20
2023-01-23T05:14:18.586Z,1.20
2023-01-23T05:16:47.562Z,1.10
2023-01-23T05:19:18.862Z,1.20
2023-01-23T05:21:46.030Z,1.20
2023-01-23T05:24:18.091Z,1.20
2023-01-23T05:26:45.544Z,1.10
2023-01-23T05:29:12.274Z,1.00
2023-01-23T05:31:47.599Z,1.00
2023-01-23T05:34:37.631Z,1.20
2023-01-23T05:37:11.494Z,1.10
2023-01-23T05:39:39.565Z,1.00
2023-01-23T05:42:06.294Z,1.00
2023-01-23T05:44:59.385Z,1.00
2023-01-23T05:47:39.482Z,1.00
2023-01-23T05:50:08.544Z,1.10
2023-01-23T05:52:37.083Z,1.10
2023-01-23T05:55:04.070Z,1.20
2023-01-23T05:57:32.075Z,1.30
2023-01-23T06:00:18.341Z,1.20
2023-01-23T06:03:06.447Z,1.20
2023-01-23T06:05:46.171Z,1.30
2023-01-23T06:08:17.917Z,1.20
2023-01-23T06:10:44.811Z,1.10
2023-01-23T06:13:11.948Z,1.10
2023-01-23T06:15:38.765Z,1.10
2023-01-23T06:18:10.560Z,1.30
2023-01-23T06:20:37.260Z,1.20
2023-01-23T06:23:04.087Z,1.20
2023-01-23T06:25:30.942Z,1.10
2023-01-23T06:28:01.146Z,1.00
2023-01-23T06:30:30.509Z,1.10
2023-01-23T06:32:57.262Z,0.90
2023-01-23T06:35:31.862Z,1.00
2023-01-23T06:37:58.613Z,1.00
2023-01-23T06:40:25.660Z,1.00
2023-01-23T06:43:06.489Z,1.10
2023-01-23T06:45:33.495Z,1.00
2023-01-23T06:48:00.163Z,1.20
2023-01-23T06:50:27.997Z,1.30
2023-01-23T06:52:54.971Z,1.30
2023-01-23T06:55:22.418Z,1.00
2023-01-23T06:57:49.344Z,1.00
2023-01-23T07:00:16.426Z,1.10
2023-01-23T07:02:45.496Z,1.10
2023-01-23T07:05:12.407Z,1.10
2023-01-23T07:07:43.886Z,1.10
2023-01-23T07:10:11.647Z,1.10
2023-01-23T07:12:38.706Z,1.20
2023-01-23T07:15:07.818Z,1.30
2023-01-23T07:17:38.429Z,1.30
2023-01-23T07:20:05.990Z,1.10
2023-01-23T07:22:39.795Z,1.10
2023-01-23T07:25:07.440Z,1.00
2023-01-23T07:27:34.186Z,1.10
2023-01-23T07:30:00.841Z,1.10
2023-01-23T07:32:27.501Z,1.20
2023-01-23T07:34:54.196Z,1.10
2023-01-23T07:37:20.950Z,1.30
2023-01-23T07:39:47.601Z,1.30
2023-01-23T07:42:14.249Z,1.40
2023-01-23T07:44:41.767Z,1.40
2023-01-23T07:47:08.482Z,1.30
2023-01-23T07:49:35.112Z,1.40
2023-01-23T07:52:01.878Z,1.40
2023-01-23T07:54:28.521Z,1.40
2023-01-23T07:56:55.185Z,1.50
2023-01-23T07:59:22.135Z,1.40
2023-01-23T08:01:50.816Z,1.40
2023-01-23T08:04:17.460Z,1.60
2023-01-23T08:06:44.472Z,1.50
2023-01-23T08:09:11.173Z,1.50
2023-01-23T08:11:37.812Z,1.40
2023-01-23T08:14:04.663Z,1.60
2023-01-23T08:16:31.607Z,1.70
2023-01-23T08:18:58.421Z,1.50
2023-01-23T08:21:26.178Z,1.50
2023-01-23T08:23:52.824Z,1.60
2023-01-23T08:26:19.546Z,1.50
2023-01-23T08:28:46.455Z,1.50
2023-01-23T08:31:13.835Z,1.60
2023-01-23T08:33:40.619Z,1.80
2023-01-23T08:36:11.016Z,1.70
2023-01-23T08:38:38.237Z,1.80
2023-01-23T08:41:05.933Z,1.70
2023-01-23T08:43:33.022Z,1.60
2023-01-23T08:46:00.018Z,1.70
2023-01-23T08:48:28.287Z,1.60
2023-01-23T08:51:07.443Z,1.70
2023-01-23T08:53:34.902Z,1.70
2023-01-23T08:56:04.594Z,1.80
2023-01-23T08:58:31.483Z,1.70
2023-01-23T09:00:58.674Z,1.90
2023-01-23T09:03:25.749Z,1.90
2023-01-23T09:05:52.461Z,2.00
2023-01-23T09:08:19.242Z,1.90
2023-01-23T09:10:45.967Z,1.90
2023-01-23T09:13:12.721Z,2.00
2023-01-23T09:15:40.210Z,1.80
2023-01-23T09:18:07.254Z,1.60
2023-01-23T09:20:34.304Z,1.90
2023-01-23T09:23:01.132Z,2.00
2023-01-23T09:25:27.962Z,1.90
2023-01-23T09:27:54.685Z,2.20
2023-01-23T09:30:21.749Z,2.20
2023-01-23T09:32:48.712Z,2.20
2023-01-23T09:35:15.447Z,2.40
2023-01-23T09:38:00.142Z,2.00
2023-01-23T09:40:32.791Z,2.20
2023-01-23T09:43:12.128Z,2.30
2023-01-23T09:45:41.248Z,2.50
2023-01-23T09:48:15.137Z,2.10
2023-01-23T09:50:53.667Z,2.30
2023-01-23T09:53:23.965Z,2.30
2023-01-23T09:55:58.155Z,2.00
2023-01-23T09:58:31.883Z,2.10
2023-01-23T10:00:59.201Z,2.10
2023-01-23T10:03:29.941Z,2.20
2023-01-23T10:06:09.818Z,2.10
2023-01-23T10:08:39.646Z,2.20
2023-01-23T10:11:33.795Z,2.20
2023-01-23T10:14:17.431Z,2.10
2023-01-23T10:17:06.939Z,2.40
2023-01-23T10:19:40.937Z,2.50
2023-01-23T10:22:34.531Z,2.20
2023-01-23T10:25:12.412Z,2.40
2023-01-23T10:27:43.208Z,2.40
2023-01-23T10:30:31.196Z,2.30
2023-01-23T10:33:14.859Z,2.30
2023-01-23T10:35:47.447Z,2.40
2023-01-23T10:38:27.843Z,2.60
2023-01-23T10:41:13.303Z,2.40
2023-01-23T10:43:41.765Z,2.30
2023-01-23T10:46:18.382Z,2.50
2023-01-23T10:48:53.060Z,2.60
2023-01-23T10:51:46.135Z,2.40
2023-01-23T10:54:30.636Z,2.20
2023-01-23T10:57:02.633Z,2.00
2023-01-23T10:59:34.717Z,2.30
2023-01-23T11:02:12.522Z,2.30
2023-01-23T11:04:41.354Z,2.40
2023-01-23T11:07:19.078Z,2.10
2023-01-23T11:09:57.983Z,2.00
2023-01-23T11:12:31.128Z,1.90
2023-01-23T11:15:22.600Z,1.70
2023-01-23T11:17:51.892Z,1.90
2023-01-23T11:20:31.852Z,2.30
2023-01-23T11:23:10.711Z,2.50
2023-01-23T11:25:40.368Z,2.40
2023-01-23T11:28:30.564Z,2.50
2023-01-23T11:31:14.549Z,2.30
2023-01-23T11:33:57.183Z,2.00
2023-01-23T11:36:52.644Z,2.10
2023-01-23T11:39:42.429Z,2.00
2023-01-23T11:42:13.615Z,1.70
2023-01-23T11:44:46.341Z,2.00
2023-01-23T11:47:34.781Z,1.70
2023-01-23T11:50:13.611Z,1.70
2023-01-23T11:52:48.424Z,2.00
2023-01-23T11:55:27.155Z,2.10
2023-01-23T11:58:37.193Z,2.00
2023-01-23T12:01:35.015Z,2.10
2023-01-23T12:04:19.855Z,2.00
2023-01-23T12:07:20.869Z,1.80
2023-01-23T12:10:16.205Z,2.00
2023-01-23T12:12:45.898Z,2.00
2023-01-23T12:15:24.541Z,2.10
2023-01-23T12:17:57.231Z,2.00
2023-01-23T12:20:35.539Z,2.20
2023-01-23T12:23:17.402Z,2.30
2023-01-23T12:25:54.542Z,2.40
2023-01-23T12:28:34.234Z,2.30
2023-01-23T12:31:05.750Z,2.40
2023-01-23T12:34:08.718Z,2.20
2023-01-23T12:37:05.070Z,2.00
2023-01-23T12:39:58.480Z,2.00
2023-01-23T12:42:53.696Z,2.30
2023-01-23T12:45:26.890Z,2.10
2023-01-23T12:48:03.598Z,2.20
2023-01-23T12:50:48.775Z,2.30
2023-01-23T12:53:18.743Z,2.30
2023-01-23T12:56:02.262Z,2.20
2023-01-23T12:58:34.173Z,2.10
2023-01-23T13:01:13.550Z,2.10
2023-01-23T13:04:04.398Z,2.40
2023-01-23T13:06:50.870Z,2.20
2023-01-23T13:09:41.872Z,2.40
2023-01-23T13:12:24.964Z,2.20
2023-01-23T13:15:13.362Z,2.40
2023-01-23T13:17:43.595Z,2.30
2023-01-23T13:20:51.843Z,2.50
2023-01-23T13:23:35.179Z,2.30
2023-01-23T13:26:19.372Z,2.50
2023-01-23T13:28:57.586Z,2.50
2023-01-23T13:31:40.657Z,2.40
2023-01-23T13:34:16.656Z,2.40
2023-01-23T13:36:53.777Z,2.40
2023-01-23T13:39:29.600Z,2.50
2023-01-23T13:42:14.695Z,2.70
2023-01-23T13:45:19.539Z,2.50
2023-01-23T14:22:56.295Z,2.10
2023-01-23T14:25:23.435Z,2.20
2023-01-23T14:28:03.402Z,2.30
2023-01-23T14:30:31.531Z,2.20
2023-01-23T14:33:01.169Z,2.20
2023-01-23T14:35:32.504Z,2.20
2023-01-23T14:38:02.208Z,2.00
2023-01-23T14:40:37.418Z,2.10
2023-01-23T14:43:18.898Z,2.20
2023-01-23T14:45:54.400Z,2.30
2023-01-23T14:48:21.755Z,2.30
2023-01-23T14:50:48.574Z,2.30
2023-01-23T14:53:16.771Z,2.30
2023-01-23T14:55:49.726Z,2.20
2023-01-23T14:58:23.567Z,2.20
2023-01-23T15:00:52.079Z,2.00
2023-01-23T15:03:43.231Z,2.10
2023-01-23T15:06:31.707Z,2.10
2023-01-23T15:09:16.213Z,2.10
2023-01-23T15:11:44.086Z,2.20
2023-01-23T15:14:39.061Z,2.20
2023-01-23T15:17:12.482Z,2.20
2023-01-23T15:19:40.945Z,2.40
2023-01-23T15:22:08.742Z,2.40
2023-01-23T15:24:35.593Z,2.40
2023-01-23T15:27:05.160Z,2.40
2023-01-23T15:29:32.711Z,2.30
2023-01-23T15:32:00.919Z,2.20
2023-01-23T15:34:33.580Z,2.10
2023-01-23T15:37:12.421Z,2.00
2023-01-23T15:39:57.389Z,2.10
2023-01-23T15:42:33.036Z,2.00
2023-01-23T15:45:03.899Z,2.00
2023-01-23T15:47:31.693Z,2.10
2023-01-23T15:50:01.723Z,2.20
2023-01-23T15:52:49.716Z,2.20
2023-01-23T15:55:16.756Z,2.30
2023-01-23T15:57:43.701Z,2.30
2023-01-23T16:00:18.529Z,2.30
2023-01-23T16:02:55.821Z,2.30
2023-01-23T16:05:26.667Z,2.30
2023-01-23T16:07:55.323Z,2.30
2023-01-23T16:10:31.036Z,2.20
2023-01-23T16:12:58.550Z,2.20
2023-01-23T16:15:27.854Z,2.10
2023-01-23T16:17:55.171Z,2.10
2023-01-23T16:20:26.847Z,2.00
2023-01-23T16:22:56.232Z,1.90
2023-01-23T16:25:43.556Z,1.90
2023-01-23T16:28:17.382Z,1.80
2023-01-23T16:30:44.938Z,1.70
2023-01-23T16:33:11.745Z,1.60
2023-01-23T16:35:39.231Z,1.60
2023-01-23T16:38:06.590Z,1.60
2023-01-23T16:40:34.154Z,1.50
2023-01-23T16:43:02.908Z,1.50
2023-01-23T16:45:31.662Z,1.60
2023-01-23T16:47:59.093Z,1.50
2023-01-23T16:50:34.525Z,1.50
2023-01-23T16:53:28.085Z,1.50
2023-01-23T16:55:57.742Z,1.50
2023-01-23T16:58:27.712Z,1.30
2023-01-23T17:01:03.187Z,1.20
2023-01-23T17:03:34.411Z,1.30
2023-01-23T17:06:01.163Z,1.30
2023-01-23T17:08:28.126Z,1.30
2023-01-23T17:10:59.844Z,1.40
2023-01-23T17:13:27.606Z,1.40
2023-01-23T17:15:56.084Z,1.40
2023-01-23T17:18:28.598Z,1.50
2023-01-23T17:20:56.234Z,1.50
2023-01-23T17:23:25.356Z,1.50
2023-01-23T17:26:00.327Z,1.50
2023-01-23T17:28:28.036Z,1.40
2023-01-23T17:30:55.532Z,1.40
2023-01-23T17:33:31.414Z,1.50
2023-01-23T17:35:59.908Z,1.70
2023-01-23T17:38:32.067Z,1.60
2023-01-23T17:40:58.819Z,1.60
2023-01-23T17:43:25.573Z,1.60
2023-01-23T17:45:52.845Z,1.60
2023-01-23T17:48:29.169Z,1.60
2023-01-23T17:50:56.844Z,1.60
2023-01-23T17:53:23.953Z,1.60
2023-01-23T17:55:52.691Z,1.60
2023-01-23T17:58:20.461Z,1.60
2023-01-23T18:00:50.604Z,1.70
2023-01-23T18:03:21.802Z,1.60
2023-01-23T18:05:48.670Z,1.60
2023-01-23T18:08:18.143Z,1.70
2023-01-23T18:10:47.026Z,1.60
2023-01-23T18:13:38.754Z,1.60
2023-01-23T18:16:33.054Z,1.60
2023-01-23T18:19:05.761Z,1.60
2023-01-23T18:21:32.763Z,1.40
2023-01-23T18:23:59.745Z,1.50
2023-01-23T18:26:58.447Z,1.40
2023-01-23T18:29:34.331Z,1.40
2023-01-23T18:32:24.066Z,1.20
2023-01-23T18:34:55.270Z,1.40
2023-01-23T18:37:48.577Z,1.30
2023-01-23T18:40:32.176Z,1.30
2023-01-23T18:43:20.283Z,1.40
2023-01-23T18:45:47.282Z,1.40
2023-01-23T18:48:24.592Z,1.30
2023-01-23T18:51:10.455Z,1.40
2023-01-23T18:53:47.015Z,1.30
2023-01-23T18:56:27.298Z,1.30
2023-01-23T18:59:23.773Z,1.40
2023-01-23T19:01:54.737Z,1.30
2023-01-23T19:04:40.727Z,1.20
2023-01-23T19:07:18.315Z,1.20
2023-01-23T19:09:46.814Z,1.10
2023-01-23T19:12:39.835Z,0.90
2023-01-23T19:15:30.448Z,0.90
2023-01-23T19:18:14.983Z,0.80
2023-01-23T19:20:49.368Z,1.00
2023-01-23T19:23:31.696Z,1.00
2023-01-23T19:25:58.741Z,1.00
2023-01-23T19:28:25.715Z,1.00
2023-01-23T19:30:52.818Z,0.80
2023-01-23T19:33:21.145Z,0.90
2023-01-23T19:35:48.474Z,1.10
2023-01-23T19:38:15.383Z,1.10
2023-01-23T19:40:43.627Z,1.20
2023-01-23T19:43:15.795Z,1.10
2023-01-23T19:45:44.287Z,1.10
2023-01-23T19:48:11.460Z,1.10
2023-01-23T19:50:38.542Z,1.00
2023-01-23T19:53:05.981Z,1.00
2023-01-23T19:55:35.921Z,1.00
2023-01-23T19:58:02.654Z,1.00
2023-01-23T20:00:31.514Z,0.90
2023-01-23T20:02:58.796Z,0.90
2023-01-23T20:05:26.615Z,1.00
2023-01-23T20:07:54.153Z,0.90
2023-01-23T20:10:21.367Z,0.90
2023-01-23T20:12:51.969Z,0.90
2023-01-23T20:15:21.272Z,0.90
2023-01-23T20:17:48.400Z,1.00
2023-01-23T20:20:16.059Z,1.00
2023-01-23T20:22:43.662Z,1.10
2023-01-23T20:25:16.584Z,1.10
2023-01-23T20:27:44.260Z,1.20
2023-01-23T20:30:14.713Z,1.30
2023-01-23T20:32:41.743Z,1.30
2023-01-23T20:35:09.022Z,1.30
2023-01-23T20:37:35.843Z,1.20
2023-01-23T20:40:02.662Z,1.30
2023-01-23T20:42:29.488Z,1.30
2023-01-23T20:44:56.230Z,1.30
2023-01-23T20:47:22.985Z,1.30
2023-01-23T20:49:49.818Z,1.30
2023-01-23T20:52:35.294Z,1.30
2023-01-23T20:55:01.936Z,1.30
2023-01-23T20:57:48.630Z,1.30
2023-01-23T21:00:15.798Z,1.40
2023-01-23T21:02:42.672Z,1.40
2023-01-23T21:05:09.416Z,1.40
2023-01-23T21:07:36.089Z,1.50
2023-01-23T21:10:03.118Z,1.40
2023-01-23T21:12:29.862Z,1.40
2023-01-23T21:14:56.553Z,1.50
2023-01-23T21:17:23.374Z,1.60
2023-01-23T21:19:50.067Z,1.60
2023-01-23T21:22:16.758Z,1.60
2023-01-23T21:24:43.591Z,1.60
2023-01-23T21:27:10.535Z,1.70
2023-01-23T21:29:38.009Z,1.80
2023-01-23T21:32:04.746Z,1.80
2023-01-23T21:34:31.473Z,1.70
2023-01-23T21:36:58.105Z,1.70
2023-01-23T21:39:24.863Z,1.70
2023-01-23T21:41:51.611Z,1.80
2023-01-23T21:44:18.308Z,1.90
2023-01-23T21:46:46.837Z,1.80
2023-01-23T21:49:13.554Z,1.70
2023-01-23T21:51:40.420Z,1.60
2023-01-23T21:54:07.153Z,1.70
2023-01-23T21:56:33.891Z,1.70
2023-01-23T21:59:00.656Z,1.80
2023-01-23T22:01:39.291Z,1.80
2023-01-23T22:04:14.621Z,1.90
2023-01-23T22:06:43.258Z,1.90
2023-01-23T22:09:14.297Z,2.00
2023-01-23T22:11:41.079Z,1.80
2023-01-23T22:14:07.797Z,1.80
2023-01-23T22:16:50.878Z,1.90
2023-01-23T22:19:23.340Z,2.00
2023-01-23T22:21:51.720Z,2.10
2023-01-23T22:24:18.598Z,2.00
2023-01-23T22:26:45.280Z,1.90
2023-01-23T22:29:13.743Z,2.00
2023-01-23T22:31:40.890Z,2.00
2023-01-23T22:34:07.871Z,2.00
2023-01-23T22:36:34.751Z,2.00
2023-01-23T22:39:01.494Z,1.90
2023-01-23T22:41:28.523Z,2.00
2023-01-23T22:43:56.790Z,1.90
2023-01-23T22:46:23.898Z,1.90
2023-01-23T22:48:51.172Z,1.80
2023-01-23T22:51:23.619Z,1.80
2023-01-23T22:53:52.105Z,1.70
2023-01-23T22:56:18.786Z,1.80
2023-01-23T22:58:50.088Z,1.70
2023-01-23T23:01:17.774Z,1.70
2023-01-23T23:03:45.543Z,1.80
2023-01-23T23:06:14.680Z,1.90
2023-01-23T23:08:42.028Z,1.80
2023-01-23T23:11:16.687Z,1.90
2023-01-23T23:13:44.005Z,1.80
2023-01-23T23:16:18.329Z,1.80
2023-01-23T23:18:47.038Z,1.80
2023-01-23T23:21:16.741Z,1.80
2023-01-23T23:23:43.784Z,1.80
2023-01-23T23:26:11.389Z,1.70
2023-01-23T23:28:38.801Z,1.70
2023-01-23T23:31:06.720Z,1.60
2023-01-23T23:33:33.523Z,1.70
2023-01-23T23:36:00.230Z,1.80
2023-01-23T23:38:27.040Z,1.70
2023-01-23T23:40:58.726Z,1.70
2023-01-23T23:43:25.921Z,1.60
2023-01-23T23:45:57.779Z,1.70
2023-01-23T23:48:25.992Z,1.70
2023-01-23T23:50:53.371Z,1.80
2023-01-23T23:53:21.140Z,1.80
2023-01-23T23:55:48.007Z,1.80
2023-01-23T23:58:14.918Z,1.90
